Newvida — V7KQ7 — position and weather

sailwx.info

Track history (hours):
 
Tides and Currents Weather Stations Pressure Air Temp Water Temp Dewpoint Dewpoint Depression Visibility Wind Speed Wind Dir Waves Ship Positions

Newvida

Last reported at 2015-Jul-01 22:34 UTC. Time now 2015-Jul-01 23:14 UTC.
Position N 37°20' E 024°52'.

Length 56 m; draft 2.5 m.

Type: Pleasure craft. MMSI: 538080049.

Date/timePositionNaut miles runAvg speedWind from/ knotsBaromVisibWave heightAir tempDewpointWater temp
2015-Jul-01 22:34N 37°20' E 024°52'1010.3
2015-Jul-01 21:34N 37°24' E 025°04'10 9.9
2015-Jul-01 20:34N 37°27' E 025°16'3 3.0
2015-Jul-01 19:31N 37°27' E 025°20'0 0.0
2015-Jul-01 18:31N 37°27' E 025°20'0 0.0
2015-Jul-01 17:31N 37°27' E 025°20'0 0.0
2015-Jul-01 16:31N 37°27' E 025°20'0 0.0
2015-Jul-01 15:31N 37°27' E 025°20'0 0.0
2015-Jul-01 14:31N 37°27' E 025°20'0 0.0
2015-Jul-01 13:31N 37°27' E 025°20'0 0.0
2015-Jul-01 12:31N 37°27' E 025°20'0 0.0
2015-Jul-01 11:31N 37°27' E 025°20'0 0.0
2015-Jul-01 10:31N 37°27' E 025°20'0 0.0
2015-Jul-01 09:31N 37°27' E 025°20'0 0.0
2015-Jul-01 08:31N 37°27' E 025°20'0 0.0
2015-Jul-01 07:31N 37°27' E 025°20'0 0.0
2015-Jul-01 06:31N 37°27' E 025°20'0 0.0
2015-Jul-01 05:31N 37°27' E 025°20'0 0.0
2015-Jul-01 04:31N 37°27' E 025°20'0 0.0
2015-Jul-01 03:31N 37°27' E 025°20'0 0.0
2015-Jul-01 02:31N 37°27' E 025°20'0 0.0
2015-Jul-01 01:31N 37°27' E 025°20'0 0.0
2015-Jul-01 00:31N 37°27' E 025°20'0 0.0
2015-Jun-30 23:31N 37°27' E 025°20'0 0.0
2015-Jun-30 22:31N 37°27' E 025°20'0 0.0
2015-Jun-30 21:28N 37°27' E 025°20'0 0.0
2015-Jun-30 20:31N 37°27' E 025°20'0 0.0
2015-Jun-30 19:31N 37°27' E 025°20'0 0.0
2015-Jun-30 18:31N 37°27' E 025°20'0 0.0
2015-Jun-30 17:31N 37°27' E 025°20'0 0.0
2015-Jun-30 16:31N 37°27' E 025°20'0 0.0
2015-Jun-30 15:31N 37°27' E 025°20'0 0.0
2015-Jun-30 14:31N 37°27' E 025°20'0 0.0
2015-Jun-30 13:31N 37°27' E 025°20'0 0.0
2015-Jun-30 12:31N 37°27' E 025°20'0 0.0
2015-Jun-30 11:31N 37°27' E 025°20'0 0.0
2015-Jun-30 10:33N 37°27' E 025°20'0 0.3
2015-Jun-30 09:33N 37°27' E 025°19'2 2.3
2015-Jun-30 08:33N 37°25' E 025°20'0 0.0
2015-Jun-30 07:30N 37°25' E 025°20'5 5.8
2015-Jun-30 06:33N 37°19' E 025°19'1211.7
2015-Jun-30 05:33N 37°08' E 025°14'0 0.3
2015-Jun-30 04:31N 37°08' E 025°14'0 0.0
2015-Jun-30 03:31N 37°08' E 025°14'0 0.0
2015-Jun-30 02:31N 37°08' E 025°14'0 0.0
2015-Jun-30 01:31N 37°08' E 025°14'0 0.0
2015-Jun-30 00:31N 37°08' E 025°14'0 0.0
2015-Jun-29 23:31N 37°08' E 025°14'0 0.0
2015-Jun-29 22:31N 37°08' E 025°14'0 0.0
2015-Jun-29 21:31N 37°08' E 025°14'0 0.0
2015-Jun-29 20:31N 37°08' E 025°14'0 0.0
2015-Jun-29 19:31N 37°08' E 025°14'0 0.0
2015-Jun-29 18:31N 37°08' E 025°14'0 0.0
2015-Jun-29 17:31N 37°08' E 025°14'0 0.0
2015-Jun-29 16:31N 37°08' E 025°14'0 0.0
2015-Jun-29 15:31N 37°08' E 025°14'0 0.0
2015-Jun-29 14:31N 37°08' E 025°14'0 0.0
2015-Jun-29 13:31N 37°08' E 025°14'0 0.0
2015-Jun-29 12:28N 37°08' E 025°14'0 0.0
2015-Jun-29 11:31N 37°08' E 025°14'0 0.0
2015-Jun-29 10:31N 37°08' E 025°14'4 4.0
2015-Jun-29 09:33N 37°09' E 025°18'1211.9
2015-Jun-29 08:31N 36°57' E 025°21'12 5.6
2015-Jun-29 06:28N 36°52' E 025°34'25 0.9
2015-Jun-28 03:33N 36°29' E 025°21'9 9.0
2015-Jun-28 02:33N 36°21' E 025°24'0 0.0
2015-Jun-28 01:33N 36°21' E 025°24'0 0.0
2015-Jun-28 00:33N 36°21' E 025°24'0 0.0
2015-Jun-27 23:33N 36°21' E 025°24'0 0.0
2015-Jun-27 22:33N 36°21' E 025°24'0 0.0
2015-Jun-27 21:33N 36°21' E 025°24'0 0.0
2015-Jun-27 20:33N 36°21' E 025°24'0 0.0
2015-Jun-27 19:33N 36°21' E 025°24'0 0.0
2015-Jun-27 18:29N 36°21' E 025°24'0 0.0
2015-Jun-27 17:33N 36°21' E 025°24'0 0.0
2015-Jun-27 16:33N 36°21' E 025°24'0 0.0
2015-Jun-27 15:30N 36°21' E 025°24'0 0.0
2015-Jun-27 14:29N 36°21' E 025°24'0 0.0
2015-Jun-27 13:32N 36°21' E 025°24'1 0.5
2015-Jun-27 11:33N 36°20' E 025°25'2 1.9
2015-Jun-27 10:32N 36°20' E 025°28'4 4.3
2015-Jun-27 09:33N 36°23' E 025°24'2 1.6
2015-Jun-27 08:31N 36°25' E 025°26'0 0.0
2015-Jun-27 07:31N 36°25' E 025°26'0 0.0
2015-Jun-27 06:31N 36°25' E 025°26'1 0.9
2015-Jun-27 05:33N 36°25' E 025°25'6 5.4
2015-Jun-27 04:30N 36°31' E 025°25'1010.2
2015-Jun-27 03:32N 36°36' E 025°35'9 9.4
2015-Jun-27 02:33N 36°41' E 025°45'10 9.7
2015-Jun-27 01:32N 36°47' E 025°55'  
Track history (hours):
 
Tides and Currents Weather Stations Pressure Air Temp Water Temp Dewpoint Dewpoint Depression Visibility Wind Speed Wind Dir Waves Ship Positions

Newvida

Last reported at 2015-Jul-01 22:34 UTC. Time now 2015-Jul-01 23:14 UTC.
Position N 37°20' E 024°52'.

Length 56 m; draft 2.5 m.

Type: Pleasure craft. MMSI: 538080049.

Date/timePositionNaut miles runAvg speedWind from/ knotsBaromVisibWave heightAir tempDewpointWater temp
2015-Jul-01 22:34N 37°20' E 024°52'1010.3
2015-Jul-01 21:34N 37°24' E 025°04'10 9.9
2015-Jul-01 20:34N 37°27' E 025°16'3 3.0
2015-Jul-01 19:31N 37°27' E 025°20'0 0.0
2015-Jul-01 18:31N 37°27' E 025°20'0 0.0
2015-Jul-01 17:31N 37°27' E 025°20'0 0.0
2015-Jul-01 16:31N 37°27' E 025°20'0 0.0
2015-Jul-01 15:31N 37°27' E 025°20'0 0.0
2015-Jul-01 14:31N 37°27' E 025°20'0 0.0
2015-Jul-01 13:31N 37°27' E 025°20'0 0.0
2015-Jul-01 12:31N 37°27' E 025°20'0 0.0
2015-Jul-01 11:31N 37°27' E 025°20'0 0.0
2015-Jul-01 10:31N 37°27' E 025°20'0 0.0
2015-Jul-01 09:31N 37°27' E 025°20'0 0.0
2015-Jul-01 08:31N 37°27' E 025°20'0 0.0
2015-Jul-01 07:31N 37°27' E 025°20'0 0.0
2015-Jul-01 06:31N 37°27' E 025°20'0 0.0
2015-Jul-01 05:31N 37°27' E 025°20'0 0.0
2015-Jul-01 04:31N 37°27' E 025°20'0 0.0
2015-Jul-01 03:31N 37°27' E 025°20'0 0.0
2015-Jul-01 02:31N 37°27' E 025°20'0 0.0
2015-Jul-01 01:31N 37°27' E 025°20'0 0.0
2015-Jul-01 00:31N 37°27' E 025°20'0 0.0
2015-Jun-30 23:31N 37°27' E 025°20'0 0.0
2015-Jun-30 22:31N 37°27' E 025°20'0 0.0
2015-Jun-30 21:28N 37°27' E 025°20'0 0.0
2015-Jun-30 20:31N 37°27' E 025°20'0 0.0
2015-Jun-30 19:31N 37°27' E 025°20'0 0.0
2015-Jun-30 18:31N 37°27' E 025°20'0 0.0
2015-Jun-30 17:31N 37°27' E 025°20'0 0.0
2015-Jun-30 16:31N 37°27' E 025°20'0 0.0
2015-Jun-30 15:31N 37°27' E 025°20'0 0.0
2015-Jun-30 14:31N 37°27' E 025°20'0 0.0
2015-Jun-30 13:31N 37°27' E 025°20'0 0.0
2015-Jun-30 12:31N 37°27' E 025°20'0 0.0
2015-Jun-30 11:31N 37°27' E 025°20'0 0.0
2015-Jun-30 10:33N 37°27' E 025°20'0 0.3
2015-Jun-30 09:33N 37°27' E 025°19'2 2.3
2015-Jun-30 08:33N 37°25' E 025°20'0 0.0
2015-Jun-30 07:30N 37°25' E 025°20'5 5.8
2015-Jun-30 06:33N 37°19' E 025°19'1211.7
2015-Jun-30 05:33N 37°08' E 025°14'0 0.3
2015-Jun-30 04:31N 37°08' E 025°14'0 0.0
2015-Jun-30 03:31N 37°08' E 025°14'0 0.0
2015-Jun-30 02:31N 37°08' E 025°14'0 0.0
2015-Jun-30 01:31N 37°08' E 025°14'0 0.0
2015-Jun-30 00:31N 37°08' E 025°14'0 0.0
2015-Jun-29 23:31N 37°08' E 025°14'0 0.0
2015-Jun-29 22:31N 37°08' E 025°14'0 0.0
2015-Jun-29 21:31N 37°08' E 025°14'0 0.0
2015-Jun-29 20:31N 37°08' E 025°14'0 0.0
2015-Jun-29 19:31N 37°08' E 025°14'0 0.0
2015-Jun-29 18:31N 37°08' E 025°14'0 0.0
2015-Jun-29 17:31N 37°08' E 025°14'0 0.0
2015-Jun-29 16:31N 37°08' E 025°14'0 0.0
2015-Jun-29 15:31N 37°08' E 025°14'0 0.0
2015-Jun-29 14:31N 37°08' E 025°14'0 0.0
2015-Jun-29 13:31N 37°08' E 025°14'0 0.0
2015-Jun-29 12:28N 37°08' E 025°14'0 0.0
2015-Jun-29 11:31N 37°08' E 025°14'0 0.0
2015-Jun-29 10:31N 37°08' E 025°14'4 4.0
2015-Jun-29 09:33N 37°09' E 025°18'1211.9
2015-Jun-29 08:31N 36°57' E 025°21'12 5.6
2015-Jun-29 06:28N 36°52' E 025°34'25 0.9
2015-Jun-28 03:33N 36°29' E 025°21'9 9.0
2015-Jun-28 02:33N 36°21' E 025°24'0 0.0
2015-Jun-28 01:33N 36°21' E 025°24'0 0.0
2015-Jun-28 00:33N 36°21' E 025°24'0 0.0
2015-Jun-27 23:33N 36°21' E 025°24'0 0.0
2015-Jun-27 22:33N 36°21' E 025°24'0 0.0
2015-Jun-27 21:33N 36°21' E 025°24'0 0.0
2015-Jun-27 20:33N 36°21' E 025°24'0 0.0
2015-Jun-27 19:33N 36°21' E 025°24'0 0.0
2015-Jun-27 18:29N 36°21' E 025°24'0 0.0
2015-Jun-27 17:33N 36°21' E 025°24'0 0.0
2015-Jun-27 16:33N 36°21' E 025°24'0 0.0
2015-Jun-27 15:30N 36°21' E 025°24'0 0.0
2015-Jun-27 14:29N 36°21' E 025°24'0 0.0
2015-Jun-27 13:32N 36°21' E 025°24'1 0.5
2015-Jun-27 11:33N 36°20' E 025°25'2 1.9
2015-Jun-27 10:32N 36°20' E 025°28'4 4.3
2015-Jun-27 09:33N 36°23' E 025°24'2 1.6
2015-Jun-27 08:31N 36°25' E 025°26'0 0.0
2015-Jun-27 07:31N 36°25' E 025°26'0 0.0
2015-Jun-27 06:31N 36°25' E 025°26'1 0.9
2015-Jun-27 05:33N 36°25' E 025°25'6 5.4
2015-Jun-27 04:30N 36°31' E 025°25'1010.2
2015-Jun-27 03:32N 36°36' E 025°35'9 9.4
2015-Jun-27 02:33N 36°41' E 025°45'10 9.7
2015-Jun-27 01:32N 36°47' E 025°55'  

Dump ship's entire track history